Time;durP1;ratioP1;P1;durP2;ratioP2;P2;SDS_P1;SDS_P2;PMS_P1;PMS_P2;Temp;Humidity;BMP_temperature;BMP_pressure;BME280_temperature;BME280_humidity;BME280_pressure;Samples;Min_cycle;Max_cycle;Signal;HPM_P1;HPM_P2
2022/02/18 00:02:21;;;;;;;2.60;1.07;;;;;;;3.58;67.73;94633.89;1723935;83;20991;-64
2022/02/18 00:04:47;;;;;;;2.47;0.87;;;;;;;3.61;67.74;94624.73;1724312;83;21545;-64
2022/02/18 00:07:14;;;;;;;2.30;1.00;;;;;;;3.61;66.98;94639.52;1724047;83;21063;-64
2022/02/18 00:09:42;;;;;;;2.33;1.00;;;;;;;3.60;67.11;94634.75;1724164;83;21038;-65
2022/02/18 00:12:11;;;;;;;1.90;0.77;;;;;;;3.59;67.43;94649.95;1724345;83;21007;-64
2022/02/18 00:14:38;;;;;;;2.60;0.90;;;;;;;3.56;67.63;94663.47;1724004;83;21090;-64
2022/02/18 00:17:06;;;;;;;2.33;0.80;;;;;;;3.52;67.60;94659.14;1724202;83;21058;-64
2022/02/18 00:19:33;;;;;;;3.53;1.50;;;;;;;3.52;68.17;94665.66;1724242;83;21015;-64
2022/02/18 00:21:59;;;;;;;2.13;1.30;;;;;;;3.50;68.05;94664.80;1724176;83;21010;-64
2022/02/18 00:24:25;;;;;;;3.13;1.10;;;;;;;3.45;68.59;94674.84;1724240;83;21023;-65
2022/02/18 00:26:52;;;;;;;1.63;0.80;;;;;;;3.45;68.43;94669.62;1724104;83;20995;-65
2022/02/18 00:29:18;;;;;;;3.97;1.17;;;;;;;3.43;68.60;94677.89;1724034;83;21090;-65
2022/02/18 00:31:44;;;;;;;3.50;1.17;;;;;;;3.44;68.34;94680.05;1724237;83;21026;-65
2022/02/18 00:34:12;;;;;;;2.87;1.30;;;;;;;3.45;68.05;94697.00;1724178;83;21078;-65
2022/02/18 00:36:39;;;;;;;2.80;0.97;;;;;;;3.46;68.68;94697.86;1724262;83;21046;-65
2022/02/18 00:39:06;;;;;;;1.90;0.87;;;;;;;3.44;69.02;94683.52;1724241;83;21013;-64
2022/02/18 00:41:32;;;;;;;1.33;0.83;;;;;;;3.45;68.60;94725.69;1724193;83;21027;-64
2022/02/18 00:43:59;;;;;;;3.17;1.10;;;;;;;3.42;69.90;94720.91;1724123;83;21130;-64
2022/02/18 00:46:29;;;;;;;3.53;1.00;;;;;;;3.40;69.76;94731.78;1724327;83;21079;-64
2022/02/18 00:48:56;;;;;;;2.13;1.00;;;;;;;3.38;69.82;94739.63;1724005;83;21532;-64
2022/02/18 00:51:23;;;;;;;4.43;1.03;;;;;;;3.34;70.21;94746.16;1724152;83;21010;-64
2022/02/18 00:53:49;;;;;;;1.60;0.90;;;;;;;3.29;70.19;94755.75;1724493;83;20987;-65
2022/02/18 00:56:16;;;;;;;4.83;1.10;;;;;;;3.22;71.08;94762.27;1729393;82;21119;-64
2022/02/18 00:58:42;;;;;;;4.07;1.00;;;;;;;3.18;71.36;94774.05;1729647;82;20986;-64
2022/02/18 01:01:09;;;;;;;3.90;1.10;;;;;;;3.10;72.25;94775.38;1729648;82;21019;-64
2022/02/18 01:03:36;;;;;;;2.43;1.20;;;;;;;2.97;73.12;94787.58;1729478;82;21030;-64
2022/02/18 01:06:04;;;;;;;4.23;1.20;;;;;;;2.90;72.96;94800.17;1729811;83;21022;-65
2022/02/18 01:08:31;;;;;;;2.07;1.10;;;;;;;2.80;74.00;94807.58;1729626;83;21030;-65
2022/02/18 01:10:57;;;;;;;2.03;0.90;;;;;;;2.70;74.42;94810.63;1729312;82;21035;-65
2022/02/18 01:13:24;;;;;;;2.03;1.17;;;;;;;2.67;75.13;94804.53;1729512;82;21085;-65
2022/02/18 01:15:51;;;;;;;3.00;1.00;;;;;;;2.56;76.12;94808.45;1729695;83;21014;-65
2022/02/18 01:18:20;;;;;;;3.00;0.80;;;;;;;2.50;76.01;94818.45;1729599;83;20995;-65
2022/02/18 01:20:46;;;;;;;1.67;0.90;;;;;;;2.52;75.31;94819.73;1729667;83;21074;-64
2022/02/18 01:23:12;;;;;;;0.70;0.67;;;;;;;2.52;75.34;94830.14;1729549;83;20994;-66
2022/02/18 01:25:39;;;;;;;3.20;0.93;;;;;;;2.51;75.16;94827.98;1729173;83;21094;-64
2022/02/18 01:28:05;;;;;;;3.23;1.07;;;;;;;2.46;75.15;94843.17;1729817;83;21014;-64
2022/02/18 01:30:33;;;;;;;2.20;0.90;;;;;;;2.45;75.36;94852.73;1729055;82;21087;-64
2022/02/18 01:33:00;;;;;;;5.17;1.00;;;;;;;2.44;75.40;94865.30;1729544;83;21485;-64
2022/02/18 01:35:27;;;;;;;1.57;0.73;;;;;;;2.34;75.87;94867.45;1729851;82;21046;-64
2022/02/18 01:37:53;;;;;;;2.97;1.00;;;;;;;2.09;78.57;94883.05;1729611;83;21007;-64
2022/02/18 01:40:22;;;;;;;2.50;1.00;;;;;;;2.05;78.89;94895.60;1729557;82;21532;-64
2022/02/18 01:42:50;;;;;;;2.90;0.90;;;;;;;1.89;79.70;94899.00;1729499;83;21536;-64
2022/02/18 01:45:17;;;;;;;2.20;1.00;;;;;;;1.84;79.95;94900.31;1679409;83;22019;-64
2022/02/18 01:47:44;;;;;;;4.10;0.73;;;;;;;1.81;80.34;94905.48;1729430;83;21525;-64
2022/02/18 01:50:11;;;;;;;2.23;0.90;;;;;;;1.74;81.05;94916.75;1729672;83;21011;-64
2022/02/18 01:52:41;;;;;;;3.00;1.17;;;;;;;1.66;81.46;94911.92;1729305;83;21017;-65
2022/02/18 01:55:12;;;;;;;4.87;1.20;;;;;;;1.75;80.92;94918.47;1726765;82;21074;-65
2022/02/18 01:57:47;;;;;;;2.17;1.03;;;;;;;1.80;80.94;94917.20;1723981;83;21062;-64
2022/02/18 02:00:17;;;;;;;2.83;1.37;;;;;;;1.76;81.02;94919.33;1724076;83;21007;-64
2022/02/18 02:02:44;;;;;;;4.10;1.40;;;;;;;1.80;80.04;94937.56;1724202;83;21007;-64
2022/02/18 02:05:12;;;;;;;3.23;1.10;;;;;;;1.87;79.85;94939.34;1723934;83;21027;-64
2022/02/18 02:07:41;;;;;;;3.07;0.70;;;;;;;1.90;79.59;94951.48;1723930;83;21021;-64
2022/02/18 02:10:11;;;;;;;4.27;2.07;;;;;;;1.87;79.64;94951.48;1724044;83;21074;-64
2022/02/18 02:12:50;;;;;;;5.23;1.10;;;;;;;1.87;79.56;94946.28;1724390;83;21058;-64
2022/02/18 02:15:25;;;;;;;1.90;1.10;;;;;;;1.80;80.59;94945.38;1723736;83;21121;-64
2022/02/18 02:17:53;;;;;;;3.47;1.20;;;;;;;1.75;80.69;94934.08;1723889;83;21086;-64
2022/02/18 02:20:21;;;;;;;5.43;1.20;;;;;;;1.67;81.21;94941.84;1723937;83;21027;-64
2022/02/18 02:22:48;;;;;;;3.17;1.40;;;;;;;1.70;80.39;94940.55;1724049;83;21058;-64
2022/02/18 02:25:16;;;;;;;4.83;1.10;;;;;;;1.72;80.66;94940.13;1724032;82;21038;-64
2022/02/18 02:27:43;;;;;;;3.83;2.40;;;;;;;1.69;81.21;94944.03;1723626;83;21035;-64
2022/02/18 02:30:15;;;;;;;4.77;1.53;;;;;;;1.76;81.19;94945.34;1724260;83;21003;-64
2022/02/18 02:32:41;;;;;;;2.90;1.30;;;;;;;1.81;81.20;94955.34;1724054;83;21545;-64
2022/02/18 02:35:09;;;;;;;3.20;1.33;;;;;;;1.76;81.31;94951.84;1723925;83;21038;-65
2022/02/18 02:37:35;;;;;;;2.83;1.20;;;;;;;1.79;80.55;94950.55;1724135;83;21011;-64
2022/02/18 02:40:06;;;;;;;2.07;1.30;;;;;;;1.91;80.67;94955.81;1723961;83;21079;-65
2022/02/18 02:42:34;;;;;;;3.13;1.63;;;;;;;1.94;79.65;94961.02;1723364;83;21031;-64
2022/02/18 02:45:04;;;;;;;1.43;1.00;;;;;;;1.98;79.88;94961.48;1723497;83;21002;-64
2022/02/18 02:47:31;;;;;;;2.60;1.50;;;;;;;1.96;79.43;94955.41;1724051;83;21516;-65
2022/02/18 02:50:00;;;;;;;3.63;1.50;;;;;;;1.94;79.44;94950.21;1722476;83;21015;-64
2022/02/18 02:52:26;;;;;;;2.67;1.50;;;;;;;1.97;79.42;94949.80;1724062;83;21054;-64
2022/02/18 02:54:55;;;;;;;3.93;1.50;;;;;;;1.99;79.16;94954.14;1724384;83;21110;-64
2022/02/18 02:57:21;;;;;;;2.47;1.20;;;;;;;1.92;79.65;94961.04;1729332;82;20995;-64
2022/02/18 02:59:50;;;;;;;1.90;1.03;;;;;;;1.91;79.44;94960.58;1728899;83;21043;-64
2022/02/18 03:02:16;;;;;;;4.97;1.60;;;;;;;1.85;80.06;94957.10;1729591;82;21019;-64
2022/02/18 03:04:43;;;;;;;3.97;1.50;;;;;;;1.78;80.40;94947.09;1702728;83;21025;-64
2022/02/18 03:07:10;;;;;;;3.77;1.57;;;;;;;1.78;80.22;94946.23;1729534;82;21018;-64
2022/02/18 03:09:37;;;;;;;3.20;1.07;;;;;;;1.72;80.04;94946.64;1729134;83;21031;-65
2022/02/18 03:12:08;;;;;;;5.53;1.60;;;;;;;1.64;79.60;94951.38;1728050;83;21524;-64
2022/02/18 03:14:37;;;;;;;3.77;1.00;;;;;;;1.56;79.91;94961.70;1729436;82;21046;-64
2022/02/18 03:17:05;;;;;;;2.07;1.40;;;;;;;1.48;79.78;94968.16;1729243;82;21586;-64
2022/02/18 03:19:32;;;;;;;3.90;1.67;;;;;;;1.47;80.25;94974.66;1729637;83;21090;-65
2022/02/18 03:22:01;;;;;;;2.97;0.90;;;;;;;1.35;81.03;94979.34;1729427;83;21445;-64
2022/02/18 03:24:27;;;;;;;2.10;1.17;;;;;;;1.30;80.58;94976.70;1729445;83;21011;-64
2022/02/18 03:26:54;;;;;;;3.70;1.50;;;;;;;1.33;80.55;94986.25;1729590;82;21027;-64
2022/02/18 03:29:23;;;;;;;4.07;0.97;;;;;;;1.29;80.02;94998.38;1729609;83;21038;-64
2022/02/18 03:31:57;;;;;;;4.70;1.13;;;;;;;1.28;78.93;94994.02;1729486;83;21027;-64
2022/02/18 03:34:24;;;;;;;3.43;1.10;;;;;;;1.32;79.80;94997.52;1729342;82;21035;-64
2022/02/18 03:36:51;;;;;;;1.83;1.00;;;;;;;1.29;79.54;94995.77;1729527;82;21066;-64
2022/02/18 03:39:19;;;;;;;4.80;1.03;;;;;;;1.28;79.25;94990.55;1729512;83;20999;-64
2022/02/18 03:41:46;;;;;;;2.93;1.27;;;;;;;1.28;79.48;94986.22;1729488;83;20998;-64
2022/02/18 03:44:13;;;;;;;4.23;0.97;;;;;;;1.19;79.64;94990.06;1729214;83;21054;-64
2022/02/18 03:46:50;;;;;;;1.43;0.77;;;;;;;1.14;77.94;94993.06;1715005;83;21042;-64
2022/02/18 03:49:17;;;;;;;4.07;1.10;;;;;;;1.19;76.79;94998.30;1729579;83;21023;-64
2022/02/18 03:51:44;;;;;;;4.37;1.20;;;;;;;1.22;76.14;94993.98;1729487;83;21067;-65
2022/02/18 03:54:11;;;;;;;2.07;1.00;;;;;;;1.20;76.74;94986.59;1729655;83;21019;-64
2022/02/18 03:56:39;;;;;;;2.53;0.90;;;;;;;1.22;76.52;94977.53;1724782;82;21038;-65
2022/02/18 03:59:06;;;;;;;4.23;1.23;;;;;;;1.20;75.77;94977.94;1723835;83;21564;-64
2022/02/18 04:01:33;;;;;;;3.33;0.87;;;;;;;1.22;76.43;94986.19;1724291;83;20999;-65
2022/02/18 04:03:59;;;;;;;3.00;0.83;;;;;;;1.22;75.95;94980.98;1724153;83;21096;-64
2022/02/18 04:06:31;;;;;;;4.57;1.40;;;;;;;1.21;75.50;94987.46;1721957;83;21091;-64
2022/02/18 04:09:05;;;;;;;3.03;1.00;;;;;;;1.18;75.82;94996.54;1723949;83;21066;-64
2022/02/18 04:11:43;;;;;;;3.47;1.23;;;;;;;1.13;75.48;95008.19;1723698;83;20979;-64
2022/02/18 04:14:10;;;;;;;1.93;1.10;;;;;;;1.06;75.96;95006.42;1724108;83;21015;-64
2022/02/18 04:16:37;;;;;;;3.70;1.43;;;;;;;1.10;76.46;95018.56;1724338;83;21014;-64
2022/02/18 04:19:08;;;;;;;1.60;0.70;;;;;;;1.07;76.22;95013.34;1722580;83;21062;-64
2022/02/18 04:21:37;;;;;;;1.50;0.90;;;;;;;1.06;75.82;95022.02;1723929;83;21039;-64
2022/02/18 04:24:06;;;;;;;4.87;1.20;;;;;;;1.14;74.43;95016.45;1723522;83;21489;-64
2022/02/18 04:26:32;;;;;;;3.70;1.17;;;;;;;1.23;73.55;95015.20;1723479;83;21018;-64
2022/02/18 04:28:59;;;;;;;3.33;1.33;;;;;;;1.25;73.90;95025.62;1724335;83;21015;-64
2022/02/18 04:31:26;;;;;;;1.87;0.80;;;;;;;1.23;73.66;95039.02;1724106;83;21102;-64
2022/02/18 04:33:52;;;;;;;1.50;0.83;;;;;;;1.19;73.36;95038.14;1723890;83;21015;-64
2022/02/18 04:36:19;;;;;;;2.07;1.00;;;;;;;1.33;71.20;95034.34;1695689;83;20994;-64
2022/02/18 04:38:45;;;;;;;3.93;1.57;;;;;;;1.40;71.01;95033.97;1724306;83;21018;-64
2022/02/18 04:41:11;;;;;;;7.30;2.60;;;;;;;1.45;71.58;95032.27;1723947;83;21030;-65
2022/02/18 04:43:38;;;;;;;2.77;1.30;;;;;;;1.46;71.59;95032.30;1724133;83;21474;-64
2022/02/18 04:46:05;;;;;;;4.33;2.30;;;;;;;1.47;71.78;95040.95;1724520;83;21070;-64
2022/02/18 04:48:31;;;;;;;2.97;1.73;;;;;;;1.45;71.43;95041.38;1723925;83;21015;-64
2022/02/18 04:50:58;;;;;;;19.90;17.90;;;;;;;1.45;71.49;95036.17;1724247;83;21026;-65
2022/02/18 04:53:25;;;;;;;6.33;3.87;;;;;;;1.40;71.85;95041.77;1724434;83;21017;-64
2022/02/18 04:55:52;;;;;;;5.00;1.53;;;;;;;1.38;71.98;95050.84;1724001;83;21027;-69
2022/02/18 04:58:18;;;;;;;4.73;2.17;;;;;;;1.37;71.58;95046.95;1723858;83;20994;-65
2022/02/18 05:00:45;;;;;;;6.40;1.90;;;;;;;1.36;71.66;95046.48;1695657;83;21022;-70
2022/02/18 05:03:11;;;;;;;4.63;1.47;;;;;;;1.36;71.59;95059.48;1724174;82;21007;-65
2022/02/18 05:05:38;;;;;;;3.73;0.70;;;;;;;1.30;71.90;95076.77;1724511;83;21030;-65
2022/02/18 05:08:05;;;;;;;6.73;5.30;;;;;;;1.33;71.31;95084.16;1723937;83;21979;-65
2022/02/18 05:10:32;;;;;;;22.63;19.57;;;;;;;1.37;71.69;95083.34;1724281;83;21062;-65
2022/02/18 05:12:59;;;;;;;17.60;14.03;;;;;;;1.36;71.89;95090.67;1724315;83;21002;-66
2022/02/18 05:15:26;;;;;;;6.60;3.60;;;;;;;1.27;72.15;95093.64;1723928;82;21027;-67
2022/02/18 05:17:52;;;;;;;15.57;8.50;;;;;;;1.24;72.45;95100.13;1724194;83;21062;-65
2022/02/18 05:20:18;;;;;;;14.60;9.70;;;;;;;1.13;73.40;95110.83;1724091;83;21032;-66
2022/02/18 05:22:45;;;;;;;4.43;3.10;;;;;;;1.11;73.18;95116.86;1723700;83;21007;-66
2022/02/18 05:25:12;;;;;;;5.60;1.37;;;;;;;1.19;73.14;95108.73;1724076;83;21528;-66
2022/02/18 05:27:38;;;;;;;6.87;1.53;;;;;;;1.21;73.10;95104.40;1723928;83;21031;-66
2022/02/18 05:30:06;;;;;;;4.53;1.73;;;;;;;1.30;72.85;95101.89;1723932;83;21042;-66
2022/02/18 05:32:33;;;;;;;7.00;1.90;;;;;;;1.29;73.31;95110.13;1724091;83;21063;-66
2022/02/18 05:34:59;;;;;;;7.27;1.80;;;;;;;1.33;72.34;95112.31;1724052;83;21545;-66
2022/02/18 05:37:25;;;;;;;6.73;1.93;;;;;;;1.39;72.38;95119.32;1723751;82;21038;-65
2022/02/18 05:39:52;;;;;;;3.70;1.43;;;;;;;1.43;72.19;95128.43;1724281;83;21006;-65
2022/02/18 05:42:19;;;;;;;8.00;2.10;;;;;;;1.43;72.07;95124.97;1724168;83;21028;-66
2022/02/18 05:44:48;;;;;;;2.27;1.07;;;;;;;1.43;72.21;95144.03;1723979;83;21043;-65
2022/02/18 05:47:15;;;;;;;3.13;1.87;;;;;;;1.42;71.95;95146.63;1724157;83;21344;-65
2022/02/18 05:49:42;;;;;;;5.77;1.80;;;;;;;1.45;72.27;95159.66;1724169;83;21455;-66
2022/02/18 05:52:08;;;;;;;8.00;1.67;;;;;;;1.44;72.27;95165.29;1724069;83;21476;-65
2022/02/18 05:54:34;;;;;;;11.27;9.43;;;;;;;1.42;72.25;95162.23;1724309;83;20983;-66
2022/02/18 05:57:01;;;;;;;4.93;1.73;;;;;;;1.42;72.69;95179.13;1729990;83;21081;-67
2022/02/18 05:59:27;;;;;;;2.77;1.77;;;;;;;1.41;72.92;95185.16;1732592;83;21055;-65
2022/02/18 06:01:54;;;;;;;1.07;0.87;;;;;;;1.41;72.89;95189.06;1732556;82;21018;-66
2022/02/18 06:04:20;;;;;;;4.77;1.80;;;;;;;1.42;72.29;95189.09;1732558;83;21010;-66
2022/02/18 06:06:47;;;;;;;7.03;2.17;;;;;;;1.47;72.34;95188.70;1732185;83;21066;-65
2022/02/18 06:09:14;;;;;;;4.47;1.40;;;;;;;1.53;72.47;95183.98;1732267;83;21073;-63
2022/02/18 06:11:40;;;;;;;4.43;1.80;;;;;;;1.56;72.19;95176.64;1732422;83;21074;-65
2022/02/18 06:14:08;;;;;;;9.93;4.50;;;;;;;1.58;72.44;95185.34;1730983;83;21077;-68
2022/02/18 06:16:35;;;;;;;5.73;3.27;;;;;;;1.62;72.02;95193.19;1731594;83;21089;-64
2022/02/18 06:19:07;;;;;;;10.03;2.80;;;;;;;1.66;72.36;95197.57;1731405;83;21544;-68
2022/02/18 06:21:40;;;;;;;4.40;1.80;;;;;;;1.67;72.31;95204.50;1731067;82;21695;-66
2022/02/18 06:24:09;;;;;;;5.50;1.63;;;;;;;1.70;72.04;95198.45;1730763;83;21089;-68
2022/02/18 06:26:36;;;;;;;4.37;2.20;;;;;;;1.77;71.84;95204.59;1731552;82;21539;-66
2022/02/18 06:29:03;;;;;;;5.57;2.77;;;;;;;1.83;71.53;95201.59;1732053;83;21026;-64
2022/02/18 06:31:30;;;;;;;6.83;3.20;;;;;;;1.90;70.34;95209.91;1731364;83;21137;-65
2022/02/18 06:33:56;;;;;;;10.10;2.97;;;;;;;1.96;70.40;95205.17;1732347;82;21007;-64
2022/02/18 06:36:23;;;;;;;2.77;1.67;;;;;;;2.01;70.81;95217.79;1732573;82;21023;-64
2022/02/18 06:38:50;;;;;;;3.80;1.73;;;;;;;2.04;70.48;95209.14;1732554;82;21031;-65
2022/02/18 06:41:16;;;;;;;4.23;2.07;;;;;;;2.07;70.95;95226.10;1731620;82;21080;-67
2022/02/18 06:43:43;;;;;;;5.13;2.10;;;;;;;2.12;70.72;95234.81;1730801;83;21097;-64
2022/02/18 06:46:09;;;;;;;4.63;1.60;;;;;;;2.19;70.24;95237.88;1704218;83;21093;-65
2022/02/18 06:48:36;;;;;;;4.60;1.80;;;;;;;2.31;70.26;95233.21;1731755;83;22206;-64
2022/02/18 06:51:02;;;;;;;4.30;1.90;;;;;;;2.37;70.59;95246.29;1731758;83;21105;-65
2022/02/18 06:53:29;;;;;;;5.27;1.97;;;;;;;2.41;70.08;95242.83;1731544;82;21124;-68
2022/02/18 06:55:55;;;;;;;4.07;1.67;;;;;;;2.41;69.34;95241.53;1729332;83;21080;-65
2022/02/18 06:58:22;;;;;;;5.70;4.10;;;;;;;2.42;69.87;95260.22;1723453;83;21544;-64
2022/02/18 07:00:52;;;;;;;2.53;1.23;;;;;;;2.45;69.55;95254.16;1723066;83;21109;-64
2022/02/18 07:03:21;;;;;;;7.97;2.50;;;;;;;2.50;68.79;95251.16;1722718;83;21066;-66
2022/02/18 07:05:48;;;;;;;7.70;5.50;;;;;;;2.59;69.23;95245.98;1722463;83;21086;-67
2022/02/18 07:08:17;;;;;;;17.03;13.73;;;;;;;2.66;69.29;95241.70;1723289;83;21015;-67
2022/02/18 07:10:43;;;;;;;14.40;8.73;;;;;;;2.79;69.62;95246.11;1724050;82;21031;-64
2022/02/18 07:13:10;;;;;;;3.00;1.10;;;;;;;2.85;68.91;95242.66;1722856;83;21631;-66
2022/02/18 07:15:37;;;;;;;3.70;1.50;;;;;;;2.75;67.34;95255.66;1723928;83;21062;-64
2022/02/18 07:18:04;;;;;;;5.60;1.47;;;;;;;2.68;67.48;95260.81;1724005;83;21051;-64
2022/02/18 07:20:32;;;;;;;3.23;1.33;;;;;;;2.67;67.52;95257.34;1723896;83;21565;-64
2022/02/18 07:22:59;;;;;;;2.20;1.43;;;;;;;2.76;68.03;95268.24;1724053;83;21043;-65
2022/02/18 07:25:26;;;;;;;5.93;3.00;;;;;;;2.82;67.84;95274.78;1724135;83;20979;-64
2022/02/18 07:27:53;;;;;;;5.10;1.57;;;;;;;2.87;67.36;95274.38;1723957;83;21589;-65
2022/02/18 07:30:20;;;;;;;1.33;0.80;;;;;;;2.89;66.54;95263.53;1723847;83;21034;-65
2022/02/18 07:32:47;;;;;;;3.77;1.30;;;;;;;2.90;67.21;95267.00;1723621;83;21035;-64
2022/02/18 07:35:13;;;;;;;1.40;1.10;;;;;;;2.94;67.08;95288.33;1724009;83;21058;-65
2022/02/18 07:37:42;;;;;;;6.57;1.63;;;;;;;2.96;66.40;95260.10;1724084;83;21055;-65
2022/02/18 07:40:11;;;;;;;3.87;0.97;;;;;;;2.98;66.32;95257.52;1724121;83;21034;-65
2022/02/18 07:42:37;;;;;;;6.43;4.33;;;;;;;3.06;66.45;95267.55;1723678;83;21532;-71
2022/02/18 07:45:05;;;;;;;3.57;2.07;;;;;;;2.98;65.70;95249.27;1723863;83;21086;-64
2022/02/18 07:47:32;;;;;;;6.10;1.50;;;;;;;3.01;65.06;95262.30;1723795;83;21070;-64
2022/02/18 07:49:58;;;;;;;6.83;1.50;;;;;;;3.09;65.13;95266.69;1723765;83;21532;-65
2022/02/18 07:52:25;;;;;;;2.77;1.30;;;;;;;3.14;65.71;95256.71;1724179;83;21063;-65
2022/02/18 07:54:52;;;;;;;2.33;1.27;;;;;;;3.16;64.82;95265.42;1723883;83;21026;-64
2022/02/18 07:57:19;;;;;;;2.97;1.00;;;;;;;3.20;64.63;95273.70;1723770;83;21034;-64
2022/02/18 07:59:47;;;;;;;2.13;1.20;;;;;;;3.28;64.43;95267.22;1723944;83;21022;-64
2022/02/18 08:02:13;;;;;;;4.50;3.00;;;;;;;3.32;64.66;95272.86;1723729;83;21023;-64
2022/02/18 08:04:40;;;;;;;5.57;2.50;;;;;;;3.36;65.06;95276.37;1723918;83;21472;-64
2022/02/18 08:07:07;;;;;;;4.60;3.30;;;;;;;3.40;64.44;95277.70;1723674;83;21007;-66
2022/02/18 08:09:34;;;;;;;2.57;1.43;;;;;;;3.50;65.10;95280.33;1724273;83;21007;-66
2022/02/18 08:12:02;;;;;;;4.40;1.97;;;;;;;3.52;65.53;95285.12;1695368;83;21022;-65
2022/02/18 08:14:29;;;;;;;4.23;1.50;;;;;;;3.57;65.23;95292.09;1724090;83;21484;-65
2022/02/18 08:16:55;;;;;;;5.67;1.57;;;;;;;3.66;65.70;95297.34;1723923;83;21030;-65
2022/02/18 08:19:23;;;;;;;2.17;1.20;;;;;;;3.72;64.17;95293.88;1723921;83;21062;-64
2022/02/18 08:21:51;;;;;;;4.70;1.63;;;;;;;3.80;64.24;95289.98;1724074;83;21537;-63
2022/02/18 08:24:19;;;;;;;4.63;1.20;;;;;;;3.84;64.12;95286.53;1724353;83;21031;-64
2022/02/18 08:26:47;;;;;;;2.80;1.40;;;;;;;3.92;63.98;95290.02;1724202;83;21006;-64
2022/02/18 08:29:16;;;;;;;3.50;1.57;;;;;;;3.99;63.75;95289.61;1724102;83;21031;-64
2022/02/18 08:31:42;;;;;;;2.63;1.57;;;;;;;4.06;62.59;95294.84;1723917;83;21010;-64
2022/02/18 08:34:09;;;;;;;2.67;1.30;;;;;;;4.07;63.51;95291.34;1723893;83;21063;-65
2022/02/18 08:36:36;;;;;;;6.00;1.50;;;;;;;4.10;62.63;95293.95;1724011;83;21053;-65
2022/02/18 08:39:05;;;;;;;4.03;1.23;;;;;;;4.13;61.77;95297.00;1724154;83;21042;-64
2022/02/18 08:41:33;;;;;;;3.77;1.27;;;;;;;4.07;60.85;95296.57;1724083;83;21549;-65
2022/02/18 08:44:00;;;;;;;3.50;1.33;;;;;;;4.07;61.81;95306.15;1723897;83;21481;-65
2022/02/18 08:46:28;;;;;;;3.40;2.00;;;;;;;4.14;61.44;95302.69;1724323;83;21046;-65
2022/02/18 08:48:55;;;;;;;3.90;1.40;;;;;;;4.18;61.15;95307.46;1723991;83;21031;-66
2022/02/18 08:51:22;;;;;;;3.30;1.60;;;;;;;4.21;60.62;95310.07;1724105;83;21055;-65
2022/02/18 08:53:49;;;;;;;2.10;1.27;;;;;;;4.26;60.90;95310.98;1724016;83;21070;-66
2022/02/18 08:56:16;;;;;;;2.97;1.37;;;;;;;4.37;60.90;95324.04;1724016;82;21075;-67
2022/02/18 08:58:44;;;;;;;1.13;0.73;;;;;;;4.45;60.79;95320.55;1724384;83;21046;-66
2022/02/18 09:01:11;;;;;;;4.80;1.00;;;;;;;4.54;59.55;95311.42;1723991;83;21493;-66
2022/02/18 09:03:39;;;;;;;5.50;1.27;;;;;;;4.64;59.23;95317.97;1723990;83;21103;-67
2022/02/18 09:06:06;;;;;;;4.50;1.23;;;;;;;4.68;58.25;95319.69;1724029;83;21581;-64
2022/02/18 09:08:32;;;;;;;4.10;1.10;;;;;;;4.69;58.82;95330.59;1723964;83;21026;-67
2022/02/18 09:10:59;;;;;;;4.93;2.40;;;;;;;4.81;59.08;95328.39;1723816;83;21066;-67
2022/02/18 09:13:26;;;;;;;3.50;1.07;;;;;;;4.97;59.69;95320.98;1723799;83;21102;-66
2022/02/18 09:15:54;;;;;;;2.77;1.40;;;;;;;5.06;58.38;95327.48;1724160;83;21019;-67
2022/02/18 09:18:38;;;;;;;2.13;1.40;;;;;;;5.16;58.10;95324.42;1723576;83;21079;-67
2022/02/18 09:21:06;;;;;;;2.07;1.07;;;;;;;5.42;59.02;95337.02;1723667;83;21043;-67
2022/02/18 09:23:34;;;;;;;2.33;1.60;;;;;;;5.51;57.64;95338.72;1724129;83;20999;-68
2022/02/18 09:26:01;;;;;;;3.37;1.33;;;;;;;5.46;56.50;95329.14;1724365;83;21026;-67
2022/02/18 09:28:29;;;;;;;4.90;1.20;;;;;;;5.50;57.89;95324.34;1723939;83;21002;-67
2022/02/18 09:30:56;;;;;;;3.33;1.40;;;;;;;5.62;56.75;95336.09;1724162;83;21014;-68
2022/02/18 09:33:26;;;;;;;4.10;0.97;;;;;;;5.64;56.55;95334.31;1723849;83;21070;-66
2022/02/18 09:35:53;;;;;;;4.27;1.70;;;;;;;5.77;55.29;95335.13;1723769;83;21606;-68
2022/02/18 09:38:20;;;;;;;3.37;1.17;;;;;;;5.69;56.16;95333.85;1724155;83;20978;-68
2022/02/18 09:40:46;;;;;;;2.37;1.30;;;;;;;5.68;55.29;95333.43;1724034;83;20999;-67
2022/02/18 09:43:15;;;;;;;1.83;1.23;;;;;;;5.77;54.79;95337.75;1723898;83;21485;-69
2022/02/18 09:45:45;;;;;;;3.83;1.07;;;;;;;5.89;55.78;95348.61;1723949;82;21011;-67
2022/02/18 09:48:16;;;;;;;1.23;0.90;;;;;;;6.12;54.51;95354.63;1724024;83;20995;-69
2022/02/18 09:50:43;;;;;;;4.27;1.63;;;;;;;6.03;51.64;95359.94;1723733;83;21035;-68
2022/02/18 09:53:10;;;;;;;4.00;1.87;;;;;;;6.06;54.18;95362.53;1722948;83;21042;-69
2022/02/18 09:55:39;;;;;;;3.37;1.10;;;;;;;6.08;52.25;95356.86;1708446;83;21521;-68
2022/02/18 09:58:07;;;;;;;1.83;1.33;;;;;;;6.15;54.28;95349.41;1702895;84;21049;-69
2022/02/18 10:00:35;;;;;;;3.93;1.10;;;;;;;6.29;52.93;95369.83;1700758;84;21494;-69
2022/02/18 10:03:02;;;;;;;2.60;1.37;;;;;;;6.09;51.44;95354.66;1700409;84;21058;-69
2022/02/18 10:05:29;;;;;;;1.17;1.07;;;;;;;6.31;53.78;95348.87;1701127;84;21006;-65
2022/02/18 10:08:14;;;;;;;1.23;1.10;;;;;;;6.47;51.84;95354.42;1701154;84;21488;-65
2022/02/18 10:10:43;;;;;;;2.70;1.13;;;;;;;6.35;51.30;95368.95;1700827;84;20986;-67
2022/02/18 10:13:36;;;;;;;2.47;1.23;;;;;;;6.33;51.56;95367.21;1700730;84;20987;-65
2022/02/18 10:16:05;;;;;;;2.30;1.50;;;;;;;6.48;52.71;95360.12;1700512;84;21042;-66
2022/02/18 10:18:56;;;;;;;4.43;1.53;;;;;;;6.64;52.47;95370.05;1700642;84;21149;-65
2022/02/18 10:21:28;;;;;;;1.90;1.03;;;;;;;6.70;49.97;95370.02;1701355;84;21009;-65
2022/02/18 10:24:17;;;;;;;2.55;1.10;;;;;;;6.63;51.13;95368.32;1701324;84;21050;-65
2022/02/18 10:26:48;;;;;;;3.07;1.10;;;;;;;6.57;49.23;95368.34;1701495;84;21065;-65
2022/02/18 10:29:24;;;;;;;2.60;1.13;;;;;;;6.43;50.06;95375.00;1701042;84;21070;-65
2022/02/18 10:32:16;;;;;;;1.77;1.20;;;;;;;6.76;53.40;95380.03;1701088;84;21022;-65
2022/02/18 10:35:03;;;;;;;2.00;1.53;;;;;;;6.87;50.73;95380.81;1701588;84;21050;-65
2022/02/18 10:37:31;;;;;;;3.17;1.43;;;;;;;7.20;50.31;95374.86;1701527;84;21057;-65
2022/02/18 10:40:10;;;;;;;1.00;0.90;;;;;;;7.66;50.08;95381.85;1701160;84;21022;-65
2022/02/18 10:42:39;;;;;;;2.33;1.20;;;;;;;7.84;46.51;95368.06;1701415;84;21054;-65
2022/02/18 10:45:12;;;;;;;3.83;1.20;;;;;;;7.66;46.85;95368.72;1700901;84;21014;-65
2022/02/18 10:47:40;;;;;;;1.80;0.95;;;;;;;7.67;45.76;95380.09;1701591;84;21050;-65
2022/02/18 10:50:23;;;;;;;3.00;1.40;;;;;;;7.53;45.84;95388.09;1700830;84;21105;-67
2022/02/18 10:53:14;;;;;;;1.67;1.10;;;;;;;7.23;47.04;95384.90;1700932;84;21551;-65
2022/02/18 10:55:54;;;;;;;2.07;1.40;;;;;;;7.12;48.31;95382.34;1701262;84;21033;-65
2022/02/18 10:58:30;;;;;;;3.87;1.47;;;;;;;7.78;47.57;95376.44;1701526;84;21076;-65
2022/02/18 11:01:17;;;;;;;1.67;1.20;;;;;;;8.23;47.07;95366.26;1701324;84;21022;-65
2022/02/18 11:03:46;;;;;;;4.28;1.40;;;;;;;8.91;47.29;95367.95;1701327;84;21013;-65
2022/02/18 11:06:24;;;;;;;2.30;1.40;;;;;;;9.51;44.19;95362.54;1701317;84;21002;-65
2022/02/18 11:09:07;;;;;;;2.90;1.30;;;;;;;10.18;42.03;95366.10;1701462;84;21528;-65
2022/02/18 11:11:44;;;;;;;2.47;1.50;;;;;;;10.46;43.29;95361.14;1701590;84;21058;-65
2022/02/18 11:14:16;;;;;;;2.42;1.10;;;;;;;10.46;42.17;95362.88;1701190;84;21002;-66
2022/02/18 11:16:52;;;;;;;1.85;1.00;;;;;;;10.33;39.59;95362.28;1701466;84;21034;-65
2022/02/18 11:19:19;;;;;;;1.27;0.90;;;;;;;10.02;39.20;95363.34;1701331;84;21468;-65
2022/02/18 11:21:46;;;;;;;2.35;1.17;;;;;;;9.76;39.78;95373.95;1701306;84;21570;-65
2022/02/18 11:24:16;;;;;;;2.92;1.10;;;;;;;9.97;39.72;95372.66;1701620;84;20981;-65
2022/02/18 11:26:44;;;;;;;2.02;1.02;;;;;;;10.10;38.38;95368.00;1701234;84;20998;-66
2022/02/18 11:29:11;;;;;;;3.00;1.20;;;;;;;10.19;39.80;95370.01;1701292;84;21504;-67
2022/02/18 11:31:42;;;;;;;2.22;1.10;;;;;;;10.67;40.01;95363.73;1701175;84;21035;-65
2022/02/18 11:34:46;;;;;;;2.58;1.00;;;;;;;10.56;37.00;95362.67;1701443;84;21010;-65
2022/02/18 11:37:25;;;;;;;;;;;;;;;10.96;37.19;95367.03;1704022;84;21062;-65
2022/02/18 11:40:23;;;;;;;2.17;0.88;;;;;;;11.15;36.99;95371.41;1701549;84;20379;-65
2022/02/18 11:43:10;;;;;;;1.98;1.00;;;;;;;10.56;37.13;95368.41;1701409;84;21503;-65
2022/02/18 11:45:37;;;;;;;2.60;1.40;;;;;;;10.38;38.77;95365.27;1701565;84;21025;-65
2022/02/18 11:48:04;;;;;;;3.33;1.30;;;;;;;10.62;41.07;95348.46;1701290;84;21252;-65
2022/02/18 11:50:30;;;;;;;1.30;1.10;;;;;;;11.27;37.57;95353.08;1701760;84;20987;-65